createdAt,value
2018-07-22T00:01:18.079Z,97780.09
2018-07-22T00:04:49.231Z,97783.55
2018-07-22T00:07:17.683Z,97783.05
2018-07-22T00:09:46.217Z,97778.22
2018-07-22T00:12:14.689Z,97783.94
2018-07-22T00:14:43.727Z,97792.28
2018-07-22T00:17:12.260Z,97792.92
2018-07-22T00:19:40.700Z,97789.30
2018-07-22T00:22:09.156Z,97784.13
2018-07-22T00:24:37.664Z,97780.78
2018-07-22T00:27:06.019Z,97784.97
2018-07-22T00:29:34.608Z,97785.30
2018-07-22T00:32:03.278Z,97779.44
2018-07-22T00:34:31.719Z,97786.11
2018-07-22T00:37:00.182Z,97780.33
2018-07-22T00:39:28.648Z,97787.02
2018-07-22T00:41:57.118Z,97789.22
2018-07-22T00:44:25.610Z,97777.32
2018-07-22T00:46:54.186Z,97770.69
2018-07-22T00:49:22.619Z,97776.70
2018-07-22T00:51:51.056Z,97776.08
2018-07-22T00:54:19.544Z,97779.42
2018-07-22T00:56:49.079Z,97781.05
2018-07-22T00:59:17.533Z,97781.77
2018-07-22T01:01:45.974Z,97786.59
2018-07-22T01:04:14.387Z,97783.59
2018-07-22T01:06:42.898Z,97775.83
2018-07-22T01:09:12.295Z,97779.14
2018-07-22T01:11:40.752Z,97782.11
2018-07-22T01:14:09.405Z,97783.45
2018-07-22T01:16:37.886Z,97774.45
2018-07-22T01:19:06.772Z,97778.47
2018-07-22T01:21:35.227Z,97769.47
2018-07-22T01:24:03.851Z,97767.02
2018-07-22T01:26:32.349Z,97768.50
2018-07-22T01:29:00.979Z,97765.17
2018-07-22T01:31:29.453Z,97758.88
2018-07-22T01:33:57.859Z,97760.86
2018-07-22T01:36:26.328Z,97763.81
2018-07-22T01:38:54.814Z,97763.84
2018-07-22T01:41:23.255Z,97755.36
2018-07-22T01:43:51.874Z,97755.86
2018-07-22T01:46:20.319Z,97744.53
2018-07-22T01:48:48.773Z,97756.17
2018-07-22T01:52:19.891Z,97750.19
2018-07-22T01:54:48.374Z,97765.48
2018-07-22T01:57:17.044Z,97763.52
2018-07-22T01:59:45.490Z,97762.51
2018-07-22T02:02:14.136Z,97764.98
2018-07-22T02:04:42.859Z,97764.49
2018-07-22T02:07:11.403Z,97766.14
2018-07-22T02:09:39.881Z,97770.84
2018-07-22T02:12:08.747Z,97776.49
2018-07-22T02:14:37.235Z,97771.18
2018-07-22T02:17:05.716Z,97771.33
2018-07-22T02:19:34.251Z,97773.48
2018-07-22T02:22:03.030Z,97771.33
2018-07-22T02:24:31.702Z,97767.83
2018-07-22T02:27:00.234Z,97765.33
2018-07-22T02:29:28.691Z,97770.31
2018-07-22T02:31:57.127Z,97769.30
2018-07-22T02:34:25.861Z,97764.49
2018-07-22T02:36:54.292Z,97758.50
2018-07-22T02:39:22.792Z,97759.84
2018-07-22T02:41:51.213Z,97760.33
2018-07-22T02:44:19.712Z,97758.35
2018-07-22T02:46:48.159Z,97763.37
2018-07-22T02:49:16.685Z,97765.15
2018-07-22T02:51:45.420Z,97761.48
2018-07-22T02:54:13.936Z,97753.84
2018-07-22T02:56:42.417Z,97761.50
2018-07-22T02:59:10.847Z,97764.31
2018-07-22T03:01:39.666Z,97753.98
2018-07-22T03:04:09.139Z,97760.32
2018-07-22T03:06:37.684Z,97760.80
2018-07-22T03:09:08.271Z,97755.17
2018-07-22T03:11:36.715Z,97754.84
2018-07-22T03:14:05.215Z,97753.48
2018-07-22T03:16:33.693Z,97722.73
2018-07-22T03:19:02.265Z,97745.64
2018-07-22T03:21:30.825Z,97741.16
2018-07-22T03:23:59.300Z,97745.53
2018-07-22T03:26:27.825Z,97749.02
2018-07-22T03:28:56.427Z,97748.80
2018-07-22T03:31:25.121Z,97742.36
2018-07-22T03:33:53.544Z,97751.31
2018-07-22T03:36:22.058Z,97746.84
2018-07-22T03:38:50.744Z,97747.98
2018-07-22T03:41:19.178Z,97749.66
2018-07-22T03:43:47.633Z,97755.83
2018-07-22T03:46:16.093Z,97761.31
2018-07-22T03:48:44.624Z,97763.97
2018-07-22T03:51:13.133Z,97755.16
2018-07-22T03:53:41.864Z,97758.84
2018-07-22T03:56:11.624Z,97757.02
2018-07-22T03:58:40.064Z,97765.36
2018-07-22T04:01:08.554Z,97764.02
2018-07-22T04:03:36.983Z,97765.83
2018-07-22T04:06:05.450Z,97754.86
2018-07-22T04:11:32.813Z,97765.53
2018-07-22T04:14:01.297Z,97766.17
2018-07-22T04:16:29.763Z,97762.83
2018-07-22T04:18:58.207Z,97769.16
2018-07-22T04:21:26.725Z,97763.19
2018-07-22T04:23:55.175Z,97769.81
2018-07-22T04:26:23.608Z,97768.33
2018-07-22T04:28:52.323Z,97769.14
2018-07-22T04:31:21.350Z,97775.48
2018-07-22T04:33:50.192Z,97766.17
2018-07-22T04:36:18.691Z,97763.84
2018-07-22T04:38:47.199Z,97768.16
2018-07-22T04:41:15.752Z,97761.16
2018-07-22T04:43:44.223Z,97754.50
2018-07-22T04:46:12.703Z,97762.16
2018-07-22T04:48:41.159Z,97756.02
2018-07-22T04:51:09.680Z,97755.19
2018-07-22T04:53:38.108Z,97750.03
2018-07-22T04:56:06.787Z,97761.34
2018-07-22T04:58:35.228Z,97765.16
2018-07-22T05:01:03.736Z,97764.84
2018-07-22T05:03:32.184Z,97766.50
2018-07-22T05:06:00.659Z,97768.83
2018-07-22T05:08:29.151Z,97766.17
2018-07-22T05:10:57.603Z,97768.27
2018-07-22T05:13:26.034Z,97769.41
2018-07-22T05:15:54.467Z,97780.03
2018-07-22T05:18:22.925Z,97776.30
2018-07-22T05:20:51.402Z,97770.94
2018-07-22T05:23:19.859Z,97769.93
2018-07-22T05:25:48.279Z,97777.21
2018-07-22T05:28:16.802Z,97780.19
2018-07-22T05:30:45.802Z,97792.28
2018-07-22T05:33:14.243Z,97795.78
2018-07-22T05:35:42.809Z,97806.09
2018-07-22T05:38:11.441Z,97816.67
2018-07-22T05:40:39.971Z,97817.20
2018-07-22T05:43:08.372Z,97825.35
2018-07-22T05:45:36.842Z,97828.70
2018-07-22T05:48:05.411Z,97827.91
2018-07-22T05:50:33.932Z,97824.86
2018-07-22T05:53:02.392Z,97838.85
2018-07-22T05:55:30.866Z,97843.33
2018-07-22T05:57:59.292Z,97845.72
2018-07-22T06:00:28.036Z,97841.19
2018-07-22T06:02:56.531Z,97836.78
2018-07-22T06:05:25.501Z,97842.63
2018-07-22T06:07:53.972Z,97843.64
2018-07-22T06:10:22.436Z,97850.77
2018-07-22T06:12:51.068Z,97846.61
2018-07-22T06:15:19.576Z,97866.50
2018-07-22T06:17:48.070Z,97866.23
2018-07-22T06:20:16.518Z,97869.98
2018-07-22T06:22:45.021Z,97858.56
2018-07-22T06:25:13.500Z,97865.03
2018-07-22T06:27:41.975Z,97860.03
2018-07-22T06:30:10.431Z,97871.84
2018-07-22T06:32:38.873Z,97881.41
2018-07-22T06:35:07.442Z,97887.83
2018-07-22T06:37:35.903Z,97888.01
2018-07-22T06:40:04.769Z,97883.31
2018-07-22T06:42:33.225Z,97882.00
2018-07-22T06:45:01.641Z,97868.99
2018-07-22T06:47:30.155Z,97853.84
2018-07-22T06:49:58.556Z,97854.02
2018-07-22T06:52:26.955Z,97852.44
2018-07-22T06:54:55.413Z,97854.63
2018-07-22T06:57:23.839Z,97851.63
2018-07-22T06:59:52.408Z,97859.25
2018-07-22T07:02:21.384Z,97852.28
2018-07-22T07:04:49.995Z,97851.81
2018-07-22T07:07:18.487Z,97853.50
2018-07-22T07:09:46.944Z,97844.16
2018-07-22T07:12:15.372Z,97854.38
2018-07-22T07:14:43.790Z,97847.44
2018-07-22T07:17:12.247Z,97849.05
2018-07-22T07:19:40.707Z,97841.80
2018-07-22T07:22:09.189Z,97843.34
2018-07-22T07:24:37.683Z,97850.86
2018-07-22T07:27:07.361Z,97844.24
2018-07-22T07:29:35.795Z,97841.05
2018-07-22T07:32:04.242Z,97853.70
2018-07-22T07:34:32.667Z,97846.09
2018-07-22T07:37:01.155Z,97852.59
2018-07-22T07:39:29.634Z,97850.34
2018-07-22T07:41:58.057Z,97854.48
2018-07-22T07:44:26.527Z,97857.21
2018-07-22T07:46:56.493Z,97856.12
2018-07-22T07:49:24.981Z,97855.25
2018-07-22T07:51:53.584Z,97859.64
2018-07-22T07:54:22.318Z,97862.98
2018-07-22T07:56:50.799Z,97859.91
2018-07-22T07:59:19.406Z,97858.91
2018-07-22T08:01:47.851Z,97856.28
2018-07-22T08:04:16.259Z,97850.84
2018-07-22T08:06:44.927Z,97859.29
2018-07-22T08:09:13.916Z,97860.73
2018-07-22T08:11:42.899Z,97858.28
2018-07-22T08:14:11.358Z,97856.18
2018-07-22T08:16:39.815Z,97859.76
2018-07-22T08:19:08.361Z,97852.39
2018-07-22T08:21:37.002Z,97858.83
2018-07-22T08:24:05.818Z,97858.27
2018-07-22T08:26:34.677Z,97855.39
2018-07-22T08:29:25.470Z,97852.47
2018-07-22T08:31:54.250Z,97860.88
2018-07-22T08:34:22.852Z,97863.59
2018-07-22T08:36:51.523Z,97857.71
2018-07-22T08:39:21.722Z,97862.86
2018-07-22T08:41:51.262Z,97862.08
2018-07-22T08:44:19.753Z,97865.11
2018-07-22T08:46:48.238Z,97874.20
2018-07-22T08:49:16.973Z,97867.70
2018-07-22T08:51:45.451Z,97870.84
2018-07-22T08:54:13.981Z,97875.14
2018-07-22T08:56:42.495Z,97878.69
2018-07-22T08:59:10.969Z,97866.27
2018-07-22T09:01:39.764Z,97878.40
2018-07-22T09:04:08.264Z,97878.85
2018-07-22T09:06:36.783Z,97874.83
2018-07-22T09:09:08.590Z,97875.34
2018-07-22T09:11:37.236Z,97875.12
2018-07-22T09:14:06.155Z,97878.19
2018-07-22T09:16:34.586Z,97880.39
2018-07-22T09:19:03.111Z,97873.30
2018-07-22T09:21:31.561Z,97883.53
2018-07-22T09:25:02.920Z,97877.67
2018-07-22T09:27:31.548Z,97879.67
2018-07-22T09:30:00.012Z,97880.89
2018-07-22T09:32:28.493Z,97889.02
2018-07-22T09:34:56.961Z,97885.08
2018-07-22T09:37:25.450Z,97885.00
2018-07-22T09:39:54.008Z,97897.81
2018-07-22T09:42:22.463Z,97889.43
2018-07-22T09:44:50.936Z,97901.33
2018-07-22T09:47:19.374Z,97892.00
2018-07-22T09:49:48.148Z,97894.54
2018-07-22T09:52:16.598Z,97892.97
2018-07-22T09:54:45.258Z,97898.29
2018-07-22T09:57:13.899Z,97894.94
2018-07-22T09:59:42.359Z,97900.66
2018-07-22T10:02:10.834Z,97897.73
2018-07-22T10:04:39.378Z,97902.17
2018-07-22T10:07:08.855Z,97901.96
2018-07-22T10:09:37.302Z,97912.17
2018-07-22T10:12:06.179Z,97908.55
2018-07-22T10:14:34.621Z,97905.91
2018-07-22T10:17:03.098Z,97913.23
2018-07-22T10:19:31.527Z,97909.94
2018-07-22T10:21:59.952Z,97912.80
2018-07-22T10:24:28.442Z,97911.88
2018-07-22T10:26:56.894Z,97913.75
2018-07-22T10:29:25.349Z,97908.36
2018-07-22T10:31:53.843Z,97913.03
2018-07-22T10:34:22.608Z,97920.41
2018-07-22T10:36:51.164Z,97919.52
2018-07-22T10:39:19.684Z,97915.37
2018-07-22T10:41:48.215Z,97921.70
2018-07-22T10:44:16.655Z,97916.33
2018-07-22T10:46:45.098Z,97920.84
2018-07-22T10:49:13.546Z,97932.65
2018-07-22T10:51:42.024Z,97930.59
2018-07-22T10:54:10.501Z,97938.58
2018-07-22T10:56:38.914Z,97940.38
2018-07-22T10:59:07.365Z,97941.73
2018-07-22T11:01:35.843Z,97938.50
2018-07-22T11:04:04.304Z,97944.88
2018-07-22T11:06:32.778Z,97943.66
2018-07-22T11:09:01.203Z,97940.44
2018-07-22T11:11:29.656Z,97941.52
2018-07-22T11:13:58.100Z,97945.23
2018-07-22T11:16:26.526Z,97951.81
2018-07-22T11:18:55.058Z,97942.39
2018-07-22T11:21:24.130Z,97941.82
2018-07-22T11:23:52.547Z,97946.41
2018-07-22T11:26:21.132Z,97945.35
2018-07-22T11:28:49.688Z,97945.08
2018-07-22T11:31:18.115Z,97939.21
2018-07-22T11:33:46.583Z,97945.44
2018-07-22T11:36:15.088Z,97941.82
2018-07-22T11:38:43.546Z,97941.78
2018-07-22T11:41:12.371Z,97937.77
2018-07-22T11:43:40.810Z,97940.38
2018-07-22T11:46:09.684Z,97943.39
2018-07-22T11:48:38.193Z,97947.20
2018-07-22T11:51:06.646Z,97948.19
2018-07-22T11:53:35.211Z,97948.12
2018-07-22T11:56:03.862Z,97939.12
2018-07-22T11:58:32.309Z,97937.86
2018-07-22T12:01:00.771Z,97946.77
2018-07-22T12:03:29.220Z,97939.77
2018-07-22T12:05:58.071Z,97939.58
2018-07-22T12:08:26.484Z,97949.66
2018-07-22T12:10:54.951Z,97945.77
2018-07-22T12:13:23.411Z,97943.67
2018-07-22T12:15:51.912Z,97943.15
2018-07-22T12:18:20.511Z,97943.73
2018-07-22T12:20:48.967Z,97937.27
2018-07-22T12:23:17.396Z,97933.45
2018-07-22T12:25:46.115Z,97943.37
2018-07-22T12:28:14.682Z,97941.45
2018-07-22T12:30:43.048Z,97946.80
2018-07-22T12:33:11.515Z,97948.04
2018-07-22T12:35:39.946Z,97950.61
2018-07-22T12:38:08.372Z,97942.73
2018-07-22T12:40:36.801Z,97940.09
2018-07-22T12:43:05.250Z,97940.41
2018-07-22T12:45:33.916Z,97941.54
2018-07-22T12:48:02.577Z,97950.33
2018-07-22T12:50:31.058Z,97950.90
2018-07-22T12:52:59.532Z,97947.82
2018-07-22T12:55:28.000Z,97945.47
2018-07-22T12:57:56.467Z,97947.69
2018-07-22T13:00:24.891Z,97949.98
2018-07-22T13:02:53.352Z,97952.34
2018-07-22T13:05:21.809Z,97956.39
2018-07-22T13:07:50.205Z,97954.72
2018-07-22T13:10:18.668Z,97961.86
2018-07-22T13:12:47.095Z,97958.37
2018-07-22T13:15:15.600Z,97955.73
2018-07-22T13:17:44.039Z,97958.69
2018-07-22T13:20:12.524Z,97952.46
2018-07-22T13:22:41.057Z,97953.66
2018-07-22T13:25:09.486Z,97956.95
2018-07-22T13:27:38.152Z,97958.72
2018-07-22T13:30:07.439Z,97961.52
2018-07-22T13:32:35.973Z,97967.72
2018-07-22T13:35:05.027Z,97961.50
2018-07-22T13:37:33.896Z,97961.66
2018-07-22T13:40:02.395Z,97968.48
2018-07-22T13:42:30.830Z,97967.58
2018-07-22T13:44:59.345Z,97961.61
2018-07-22T13:47:27.966Z,97970.61
2018-07-22T13:49:56.410Z,97966.91
2018-07-22T13:52:25.280Z,97967.41
2018-07-22T13:54:53.911Z,97972.50
2018-07-22T13:57:22.354Z,97972.94
2018-07-22T13:59:50.832Z,97972.86
2018-07-22T14:02:19.286Z,97972.11
2018-07-22T14:04:48.019Z,97982.55
2018-07-22T14:07:16.723Z,97981.77
2018-07-22T14:09:45.193Z,97979.30
2018-07-22T14:12:13.604Z,97980.38
2018-07-22T14:14:42.185Z,97979.03
2018-07-22T14:17:10.605Z,97976.14
2018-07-22T14:19:39.042Z,97974.86
2018-07-22T14:22:07.492Z,97976.99
2018-07-22T14:24:35.920Z,97981.64
2018-07-22T14:27:04.387Z,97978.71
2018-07-22T14:29:33.184Z,97981.02
2018-07-22T14:32:01.853Z,97977.03
2018-07-22T14:34:30.656Z,97981.23
2018-07-22T14:36:59.111Z,97976.80
2018-07-22T14:39:27.812Z,97985.61
2018-07-22T14:41:56.281Z,97981.86
2018-07-22T14:44:24.768Z,97970.66
2018-07-22T14:46:53.246Z,97983.91
2018-07-22T14:49:21.631Z,97979.13
2018-07-22T14:51:50.075Z,97974.79
2018-07-22T14:54:18.502Z,97971.23
2018-07-22T14:56:46.990Z,97967.48
2018-07-22T14:59:15.397Z,97968.84
2018-07-22T15:01:43.862Z,97970.58
2018-07-22T15:04:12.303Z,97970.33
2018-07-22T15:06:41.085Z,97973.40
2018-07-22T15:09:10.109Z,97979.34
2018-07-22T15:11:38.608Z,97986.00
2018-07-22T15:14:07.068Z,97984.66
2018-07-22T15:16:35.446Z,97993.41
2018-07-22T15:19:03.980Z,98002.72
2018-07-22T15:21:32.387Z,97992.21
2018-07-22T15:24:00.895Z,97991.14
2018-07-22T15:26:29.422Z,97995.38
2018-07-22T15:28:57.888Z,97994.86
2018-07-22T15:31:26.347Z,97991.88
2018-07-22T15:33:54.792Z,97993.04
2018-07-22T15:36:23.219Z,97990.97
2018-07-22T15:38:51.635Z,97984.60
2018-07-22T15:41:20.074Z,97978.44
2018-07-22T15:43:48.591Z,97971.61
2018-07-22T15:46:17.031Z,97964.84
2018-07-22T15:48:45.484Z,97976.52
2018-07-22T15:51:13.942Z,97972.44
2018-07-22T15:53:42.411Z,97972.30
2018-07-22T15:56:10.882Z,97960.03
2018-07-22T15:58:39.361Z,97963.55
2018-07-22T16:01:08.136Z,97965.48
2018-07-22T16:03:36.779Z,97971.54
2018-07-22T16:06:05.571Z,97973.05
2018-07-22T16:08:34.775Z,97977.07
2018-07-22T16:11:03.199Z,97974.16
2018-07-22T16:13:31.675Z,97969.76
2018-07-22T16:16:00.113Z,97977.06
2018-07-22T16:18:28.571Z,97974.92
2018-07-22T16:20:57.091Z,97985.72
2018-07-22T16:23:25.583Z,97985.12
2018-07-22T16:25:54.096Z,97989.38
2018-07-22T16:28:22.551Z,97982.19
2018-07-22T16:30:51.027Z,97992.77
2018-07-22T16:33:19.494Z,97997.17
2018-07-22T16:35:47.982Z,98001.83
2018-07-22T16:38:16.380Z,98003.30
2018-07-22T16:40:44.844Z,97993.53
2018-07-22T16:43:13.316Z,97995.87
2018-07-22T16:45:41.751Z,97994.65
2018-07-22T16:48:10.230Z,97998.44
2018-07-22T16:50:38.648Z,97998.29
2018-07-22T16:53:07.116Z,97997.50
2018-07-22T16:55:35.581Z,97997.80
2018-07-22T16:58:04.015Z,97998.97
2018-07-22T17:00:32.691Z,97997.68
2018-07-22T17:03:01.105Z,97997.58
2018-07-22T17:05:29.551Z,98001.78
2018-07-22T17:07:58.036Z,97995.00
2018-07-22T17:10:26.460Z,98002.66
2018-07-22T17:12:55.621Z,98002.19
2018-07-22T17:15:24.073Z,97995.73
2018-07-22T17:17:52.534Z,97996.89
2018-07-22T17:20:21.023Z,97996.27
2018-07-22T17:22:49.405Z,98006.44
2018-07-22T17:25:18.153Z,97997.63
2018-07-22T17:27:46.866Z,97997.67
2018-07-22T17:30:15.300Z,98001.48
2018-07-22T17:32:43.840Z,98000.69
2018-07-22T17:35:12.420Z,98003.98
2018-07-22T17:37:40.854Z,98000.56
2018-07-22T17:40:09.429Z,97998.34
2018-07-22T17:42:37.925Z,97993.48
2018-07-22T17:45:06.424Z,97982.84
2018-07-22T17:47:34.849Z,97999.01
2018-07-22T17:50:03.300Z,98003.96
2018-07-22T17:52:31.733Z,98008.06
2018-07-22T17:55:00.264Z,98005.92
2018-07-22T17:57:28.785Z,98008.23
2018-07-22T17:59:57.214Z,98007.76
2018-07-22T18:02:25.696Z,98008.92
2018-07-22T18:04:54.155Z,98011.51
2018-07-22T18:07:22.795Z,98004.59
2018-07-22T18:09:51.924Z,98011.66
2018-07-22T18:12:20.424Z,98009.73
2018-07-22T18:14:48.884Z,98009.64
2018-07-22T18:17:17.335Z,98019.70
2018-07-22T18:19:45.816Z,98017.49
2018-07-22T18:22:14.275Z,98016.40
2018-07-22T18:24:43.524Z,98025.11
2018-07-22T18:27:11.992Z,98025.07
2018-07-22T18:29:40.467Z,98022.38
2018-07-22T18:32:08.909Z,98029.00
2018-07-22T18:34:37.315Z,98028.23
2018-07-22T18:37:05.855Z,98030.23
2018-07-22T18:39:34.243Z,98029.13
2018-07-22T18:42:02.715Z,98037.59
2018-07-22T18:44:31.216Z,98032.08
2018-07-22T18:46:59.629Z,98038.83
2018-07-22T18:49:28.543Z,98033.06
2018-07-22T18:51:56.996Z,98038.51
2018-07-22T18:54:25.541Z,98046.32
2018-07-22T18:56:54.042Z,98042.02
2018-07-22T18:59:22.838Z,98038.16
2018-07-22T19:01:51.312Z,98031.48
2018-07-22T19:06:47.360Z,98044.92
2018-07-22T19:10:18.564Z,98043.58
2018-07-22T19:12:47.367Z,98049.42
2018-07-22T19:15:15.804Z,98051.45
2018-07-22T19:17:44.446Z,98063.53
2018-07-22T19:20:12.954Z,98068.63
2018-07-22T19:22:41.580Z,98074.63
2018-07-22T19:25:10.346Z,98076.05
2018-07-22T19:27:39.256Z,98079.95
2018-07-22T19:30:07.748Z,98079.47
2018-07-22T19:32:36.348Z,98091.84
2018-07-22T19:35:05.185Z,98094.26
2018-07-22T19:37:33.782Z,98083.64
2018-07-22T19:40:02.255Z,98088.15
2018-07-22T19:42:30.891Z,98095.20
2018-07-22T19:44:59.352Z,98095.52
2018-07-22T19:47:27.780Z,98093.87
2018-07-22T19:49:56.211Z,98097.53
2018-07-22T19:52:24.886Z,98099.20
2018-07-22T19:54:53.412Z,98104.05
2018-07-22T19:57:21.858Z,98101.25
2018-07-22T19:59:50.260Z,98097.92
2018-07-22T20:02:18.734Z,98096.23
2018-07-22T20:04:47.171Z,98102.08
2018-07-22T20:07:15.604Z,98095.25
2018-07-22T20:09:44.324Z,98097.59
2018-07-22T20:12:12.811Z,98095.59
2018-07-22T20:14:41.370Z,98093.25
2018-07-22T20:17:12.128Z,98096.12
2018-07-22T20:19:40.907Z,98101.47
2018-07-22T20:22:09.362Z,98103.44
2018-07-22T20:24:37.814Z,98100.80
2018-07-22T20:27:06.900Z,98103.30
2018-07-22T20:29:35.606Z,98100.61
2018-07-22T20:32:04.421Z,98102.28
2018-07-22T20:34:32.888Z,98096.13
2018-07-22T20:37:01.348Z,98100.63
2018-07-22T20:39:29.820Z,98100.27
2018-07-22T20:41:58.276Z,98107.61
2018-07-22T20:44:27.199Z,98105.05
2018-07-22T20:46:55.665Z,98106.21
2018-07-22T20:49:24.110Z,98106.06
2018-07-22T20:51:52.559Z,98109.11
2018-07-22T20:54:20.998Z,98102.94
2018-07-22T20:56:49.555Z,98101.27
2018-07-22T20:59:18.115Z,98100.61
2018-07-22T21:01:46.603Z,98109.48
2018-07-22T21:04:15.079Z,98110.78
2018-07-22T21:06:43.523Z,98111.09
2018-07-22T21:09:12.551Z,98108.41
2018-07-22T21:11:52.130Z,98108.61
2018-07-22T21:14:20.757Z,98116.61
2018-07-22T21:16:49.878Z,98108.92
2018-07-22T21:19:18.292Z,98108.89
2018-07-22T21:21:46.909Z,98114.61
2018-07-22T21:24:15.371Z,98119.39
2018-07-22T21:26:44.200Z,98116.97
2018-07-22T21:29:12.787Z,98122.30
2018-07-22T21:31:41.186Z,98125.64
2018-07-22T21:34:09.808Z,98123.63
2018-07-22T21:36:38.223Z,98132.97
2018-07-22T21:39:08.909Z,98133.63
2018-07-22T21:41:37.353Z,98125.63
2018-07-22T21:44:06.487Z,98129.30
2018-07-22T21:46:34.923Z,98133.28
2018-07-22T21:49:03.429Z,98133.77
2018-07-22T21:51:31.877Z,98131.96
2018-07-22T21:54:00.332Z,98134.12
2018-07-22T21:56:29.008Z,98133.60
2018-07-22T21:58:57.453Z,98134.28
2018-07-22T22:03:32.595Z,98133.79
2018-07-22T22:06:01.071Z,98130.86
2018-07-22T22:08:29.684Z,98129.77
2018-07-22T22:10:58.092Z,98127.23
2018-07-22T22:13:26.526Z,98133.29
2018-07-22T22:15:55.012Z,98128.45
2018-07-22T22:18:23.448Z,98125.63
2018-07-22T22:20:52.438Z,98128.28
2018-07-22T22:23:20.898Z,98125.95
2018-07-22T22:25:49.451Z,98134.30
2018-07-22T22:28:17.900Z,98127.45
2018-07-22T22:30:46.346Z,98115.78
2018-07-22T22:33:14.784Z,98114.55
2018-07-22T22:35:43.238Z,98122.22
2018-07-22T22:38:11.711Z,98115.39
2018-07-22T22:40:40.127Z,98121.78
2018-07-22T22:43:08.532Z,98124.41
2018-07-22T22:45:37.012Z,98121.27
2018-07-22T22:48:05.492Z,98118.61
2018-07-22T22:50:34.029Z,98116.56
2018-07-22T22:53:02.496Z,98113.61
2018-07-22T22:55:30.929Z,98114.30
2018-07-22T22:58:10.531Z,98108.11
2018-07-22T23:00:39.144Z,98112.45
2018-07-22T23:03:07.812Z,98114.72
2018-07-22T23:05:36.596Z,98120.17
2018-07-22T23:08:05.238Z,98110.33
2018-07-22T23:10:33.793Z,98115.34
2018-07-22T23:13:02.256Z,98106.89
2018-07-22T23:15:30.884Z,98108.39
2018-07-22T23:17:59.310Z,98111.19
2018-07-22T23:20:27.737Z,98113.11
2018-07-22T23:22:56.199Z,98107.72
2018-07-22T23:25:24.844Z,98108.23
2018-07-22T23:27:53.347Z,98107.59
2018-07-22T23:30:21.790Z,98105.95
2018-07-22T23:32:50.214Z,98113.13
2018-07-22T23:35:18.654Z,98110.89
2018-07-22T23:37:47.169Z,98110.94
2018-07-22T23:40:15.611Z,98122.62
2018-07-22T23:42:44.388Z,98104.28
2018-07-22T23:45:12.888Z,98113.97
2018-07-22T23:47:41.336Z,98109.13
2018-07-22T23:50:09.791Z,98103.61
2018-07-22T23:52:38.365Z,98107.23
2018-07-22T23:55:06.835Z,98102.55
2018-07-22T23:57:35.246Z,98105.54
